createdAt,value
2022-11-17T00:01:10.728Z,89.40
2022-11-17T00:04:17.040Z,89.63
2022-11-17T00:07:21.766Z,89.52
2022-11-17T00:10:28.098Z,89.57
2022-11-17T00:13:52.364Z,89.49
2022-11-17T00:16:58.713Z,89.44
2022-11-17T00:20:20.563Z,89.48
2022-11-17T00:23:47.482Z,89.53
2022-11-17T00:27:03.201Z,89.46
2022-11-17T00:30:31.176Z,89.45
2022-11-17T00:33:55.058Z,89.27
2022-11-17T00:37:01.580Z,89.22
2022-11-17T00:40:09.544Z,89.23
2022-11-17T00:43:16.051Z,89.14
2022-11-17T00:46:22.476Z,89.00
2022-11-17T00:49:28.793Z,89.05
2022-11-17T00:52:33.393Z,89.19
2022-11-17T00:55:39.786Z,89.33
2022-11-17T00:58:46.124Z,89.19
2022-11-17T01:01:52.506Z,89.22
2022-11-17T01:04:58.923Z,89.22
2022-11-17T01:08:03.497Z,89.27
2022-11-17T01:11:12.889Z,89.27
2022-11-17T01:14:24.617Z,89.33
2022-11-17T01:17:31.042Z,89.41
2022-11-17T01:20:37.805Z,89.46
2022-11-17T01:23:45.891Z,89.31
2022-11-17T01:26:52.413Z,89.42
2022-11-17T01:29:58.779Z,89.25
2022-11-17T01:33:03.432Z,89.19
2022-11-17T01:36:13.223Z,89.22
2022-11-17T01:39:19.939Z,89.32
2022-11-17T01:42:28.277Z,89.08
2022-11-17T01:45:35.147Z,88.94
2022-11-17T01:48:42.006Z,89.09
2022-11-17T01:51:52.704Z,88.94
2022-11-17T01:55:00.631Z,89.05
2022-11-17T01:58:10.456Z,89.04
2022-11-17T02:01:17.016Z,89.09
2022-11-17T02:04:23.873Z,88.99
2022-11-17T02:07:34.326Z,89.06
2022-11-17T02:10:42.442Z,89.09
2022-11-17T02:13:53.241Z,89.13
2022-11-17T02:17:06.288Z,89.48
2022-11-17T02:20:23.991Z,89.25
2022-11-17T02:23:58.956Z,89.34
2022-11-17T02:27:45.057Z,89.50
2022-11-17T02:31:13.730Z,89.27
2022-11-17T02:34:30.862Z,89.21
2022-11-17T02:37:49.630Z,89.19
2022-11-17T02:41:00.846Z,89.15
2022-11-17T02:44:12.809Z,89.23
2022-11-17T02:47:24.399Z,89.08
2022-11-17T02:50:32.226Z,89.14
2022-11-17T02:53:39.907Z,89.00
2022-11-17T02:56:46.680Z,89.09
2022-11-17T02:59:53.247Z,89.15
2022-11-17T03:03:17.952Z,88.97
2022-11-17T03:06:36.075Z,89.11
2022-11-17T03:09:51.350Z,89.09
2022-11-17T03:13:03.168Z,88.96
2022-11-17T03:16:23.361Z,88.97
2022-11-17T03:19:34.546Z,89.11
2022-11-17T03:22:50.035Z,89.14
2022-11-17T03:26:00.096Z,89.33
2022-11-17T03:29:11.570Z,89.26
2022-11-17T03:32:19.354Z,89.20
2022-11-17T03:35:30.556Z,89.04
2022-11-17T03:38:39.759Z,89.11
2022-11-17T03:41:49.400Z,89.26
2022-11-17T03:45:00.135Z,89.19
2022-11-17T03:48:14.498Z,89.21
2022-11-17T03:51:23.820Z,89.18
2022-11-17T03:54:30.369Z,89.31
2022-11-17T03:57:45.118Z,89.21
2022-11-17T04:00:53.965Z,89.03
2022-11-17T04:04:00.269Z,88.73
2022-11-17T04:07:04.841Z,89.21
2022-11-17T04:10:13.702Z,89.26
2022-11-17T04:13:37.490Z,88.93
2022-11-17T04:16:44.123Z,88.86
2022-11-17T04:19:50.449Z,88.98
2022-11-17T04:23:08.443Z,89.02
2022-11-17T04:26:32.115Z,88.87
2022-11-17T04:29:38.438Z,88.91
2022-11-17T04:32:43.116Z,89.14
2022-11-17T04:35:54.030Z,89.05
2022-11-17T04:39:01.121Z,88.83
2022-11-17T04:42:07.500Z,88.92
2022-11-17T04:45:12.649Z,89.10
2022-11-17T04:48:18.979Z,89.03
2022-11-17T04:51:23.897Z,88.99
2022-11-17T04:54:30.315Z,88.99
2022-11-17T04:57:37.146Z,88.84
2022-11-17T05:00:43.672Z,88.99
2022-11-17T05:03:51.522Z,89.09
2022-11-17T05:06:57.882Z,88.87
2022-11-17T05:10:02.610Z,88.86
2022-11-17T05:13:26.343Z,89.01
2022-11-17T05:16:50.263Z,89.01
2022-11-17T05:19:57.615Z,89.12
2022-11-17T05:23:21.334Z,88.98
2022-11-17T05:26:29.176Z,88.89
2022-11-17T05:29:35.433Z,88.98
2022-11-17T05:32:41.738Z,88.85
2022-11-17T05:35:46.307Z,88.83
2022-11-17T05:38:53.495Z,88.94
2022-11-17T05:41:59.830Z,89.07
2022-11-17T05:45:04.417Z,88.90
2022-11-17T05:48:11.032Z,88.58
2022-11-17T05:51:18.097Z,88.85
2022-11-17T05:54:24.609Z,88.65
2022-11-17T05:57:33.847Z,88.70
2022-11-17T06:00:41.710Z,88.74
2022-11-17T06:03:55.342Z,88.72
2022-11-17T06:07:02.996Z,88.86
2022-11-17T06:10:11.678Z,88.95
2022-11-17T06:13:20.432Z,88.95
2022-11-17T06:16:32.735Z,88.83
2022-11-17T06:19:42.754Z,88.81
2022-11-17T06:22:50.706Z,88.69
2022-11-17T06:25:58.072Z,88.87
2022-11-17T06:29:05.805Z,88.92
2022-11-17T06:32:13.374Z,88.65
2022-11-17T06:35:20.542Z,88.73
2022-11-17T06:38:26.911Z,88.70
2022-11-17T06:41:32.129Z,88.52
2022-11-17T06:44:38.496Z,88.47
2022-11-17T06:47:43.015Z,88.64
2022-11-17T06:50:52.223Z,88.74
2022-11-17T06:53:58.572Z,88.73
2022-11-17T06:57:03.230Z,88.76
2022-11-17T07:00:11.593Z,88.41
2022-11-17T07:03:17.984Z,88.55
2022-11-17T07:06:22.483Z,88.65
2022-11-17T07:09:28.887Z,88.44
2022-11-17T07:12:36.137Z,88.61
2022-11-17T07:15:42.468Z,88.69
2022-11-17T07:18:47.260Z,88.78
2022-11-17T07:21:53.607Z,88.72
2022-11-17T07:24:58.215Z,88.80
2022-11-17T07:28:04.864Z,88.68
2022-11-17T07:31:12.036Z,88.59
2022-11-17T07:34:18.393Z,88.50
2022-11-17T07:37:23.082Z,88.64
2022-11-17T07:40:29.835Z,88.51
2022-11-17T07:43:36.909Z,88.82
2022-11-17T07:46:43.322Z,88.65
2022-11-17T07:49:49.675Z,88.41
2022-11-17T07:52:56.145Z,88.48
2022-11-17T07:56:06.667Z,88.44
2022-11-17T07:59:17.180Z,88.45
2022-11-17T08:02:28.217Z,88.45
2022-11-17T08:05:41.584Z,88.52
2022-11-17T08:08:49.840Z,88.66
2022-11-17T08:11:57.702Z,88.71
2022-11-17T08:15:04.240Z,88.73
2022-11-17T08:18:10.622Z,88.43
2022-11-17T08:21:15.987Z,88.56
2022-11-17T08:24:22.282Z,88.58
2022-11-17T08:27:27.000Z,88.50
2022-11-17T08:30:34.937Z,88.44
2022-11-17T08:33:41.368Z,88.51
2022-11-17T08:36:47.643Z,88.66
2022-11-17T08:39:52.321Z,88.69
2022-11-17T08:43:01.439Z,88.61
2022-11-17T08:46:12.095Z,88.53
2022-11-17T08:49:18.530Z,88.39
2022-11-17T08:52:24.873Z,88.59
2022-11-17T08:55:29.501Z,88.49
2022-11-17T08:58:39.087Z,88.67
2022-11-17T09:01:45.573Z,88.75
2022-11-17T09:04:52.218Z,88.71
2022-11-17T09:08:22.402Z,88.56
2022-11-17T09:11:26.690Z,88.54
2022-11-17T09:14:32.975Z,88.71
2022-11-17T09:17:37.622Z,88.38
2022-11-17T09:20:45.883Z,88.48
2022-11-17T09:23:52.445Z,88.64
2022-11-17T09:26:58.678Z,88.58
2022-11-17T09:30:05.360Z,88.11
2022-11-17T09:33:11.625Z,88.25
2022-11-17T09:36:18.800Z,88.51
2022-11-17T09:39:25.328Z,88.53
2022-11-17T09:42:32.254Z,88.36
2022-11-17T09:45:41.210Z,88.32
2022-11-17T09:48:56.916Z,88.51
2022-11-17T10:05:44.900Z,88.27
2022-11-17T10:09:00.590Z,88.05
2022-11-17T10:12:17.613Z,88.23
2022-11-17T10:15:30.835Z,88.17
2022-11-17T10:18:39.534Z,88.16
2022-11-17T10:21:46.500Z,88.25
2022-11-17T10:24:55.656Z,88.20
2022-11-17T10:28:01.927Z,88.37
2022-11-17T10:31:14.704Z,88.30
2022-11-17T10:34:40.675Z,88.33
2022-11-17T10:37:57.985Z,88.52
2022-11-17T10:41:04.956Z,88.20
2022-11-17T10:44:23.292Z,88.39
2022-11-17T10:47:33.628Z,88.22
2022-11-17T10:50:51.875Z,87.97
2022-11-17T10:54:22.988Z,88.04
2022-11-17T10:57:29.269Z,88.11
2022-11-17T11:00:34.903Z,88.05
2022-11-17T11:03:51.712Z,87.96
2022-11-17T11:07:10.125Z,88.11
2022-11-17T11:10:20.218Z,88.25
2022-11-17T11:13:32.786Z,87.99
2022-11-17T11:16:42.446Z,87.99
2022-11-17T11:19:54.990Z,87.96
2022-11-17T11:23:09.412Z,88.04
2022-11-17T11:26:31.702Z,88.16
2022-11-17T11:29:53.802Z,88.15
2022-11-17T11:33:10.714Z,87.90
2022-11-17T11:36:32.193Z,87.96
2022-11-17T11:39:50.905Z,88.11
2022-11-17T11:43:01.152Z,88.07
2022-11-17T11:46:17.701Z,87.94
2022-11-17T11:49:36.104Z,88.05
2022-11-17T11:52:47.037Z,87.97
2022-11-17T11:56:01.877Z,88.00
2022-11-17T11:59:20.705Z,88.11
2022-11-17T12:02:32.827Z,87.93
2022-11-17T12:05:44.225Z,87.90
2022-11-17T12:08:59.177Z,87.87
2022-11-17T12:12:15.345Z,87.84
2022-11-17T12:15:38.626Z,87.89
2022-11-17T12:18:44.796Z,87.84
2022-11-17T12:21:57.897Z,87.86
2022-11-17T12:25:15.312Z,87.85
2022-11-17T12:28:39.909Z,87.91
2022-11-17T12:31:47.968Z,87.95
2022-11-17T12:35:26.768Z,87.80
2022-11-17T12:38:45.870Z,87.66
2022-11-17T12:42:11.130Z,87.83
2022-11-17T12:45:17.796Z,87.62
2022-11-17T12:48:34.801Z,87.70
2022-11-17T12:51:53.315Z,87.72
2022-11-17T12:55:04.741Z,87.74
2022-11-17T12:58:21.969Z,87.53
2022-11-17T13:01:37.153Z,87.68
2022-11-17T13:04:49.671Z,87.61
2022-11-17T13:08:20.468Z,87.54
2022-11-17T13:11:27.034Z,87.68
2022-11-17T13:14:33.709Z,87.69
2022-11-17T13:17:43.954Z,87.59
2022-11-17T13:20:51.056Z,87.61
2022-11-17T13:23:57.989Z,87.61
2022-11-17T13:27:07.493Z,87.66
2022-11-17T13:30:23.416Z,87.60
2022-11-17T13:33:34.327Z,87.57
2022-11-17T13:36:57.741Z,87.66
2022-11-17T13:40:19.931Z,87.56
2022-11-17T13:43:29.358Z,87.36
2022-11-17T13:46:38.877Z,87.36
2022-11-17T13:49:45.189Z,87.43
2022-11-17T13:52:54.036Z,87.52
2022-11-17T13:56:00.383Z,87.47
2022-11-17T13:59:06.749Z,87.65
2022-11-17T14:02:30.678Z,87.62
2022-11-17T14:05:37.113Z,87.46
2022-11-17T14:08:45.633Z,87.52
2022-11-17T14:11:52.355Z,87.48
2022-11-17T14:14:58.738Z,87.44
2022-11-17T14:18:22.773Z,87.49
2022-11-17T14:21:30.710Z,87.33
2022-11-17T14:24:37.538Z,87.46
2022-11-17T14:27:44.728Z,87.43
2022-11-17T14:30:54.913Z,87.38
2022-11-17T14:34:01.313Z,87.36
2022-11-17T14:37:10.552Z,87.32
2022-11-17T14:40:19.659Z,87.30
2022-11-17T14:43:26.277Z,87.21
2022-11-17T14:46:32.557Z,87.38
2022-11-17T14:49:38.835Z,87.41
2022-11-17T14:52:43.943Z,87.17
2022-11-17T14:55:50.266Z,87.19
2022-11-17T14:58:56.748Z,87.33
2022-11-17T15:02:03.041Z,87.30
2022-11-17T15:05:08.329Z,87.14
2022-11-17T15:08:14.837Z,87.28
2022-11-17T15:11:21.311Z,87.50
2022-11-17T15:14:27.837Z,87.42
2022-11-17T15:17:34.275Z,87.24
2022-11-17T15:20:40.587Z,87.17
2022-11-17T15:23:45.512Z,87.10
2022-11-17T15:26:51.879Z,87.16
2022-11-17T15:29:56.442Z,87.40
2022-11-17T15:33:02.916Z,87.37
2022-11-17T15:36:11.056Z,87.42
2022-11-17T15:39:18.238Z,87.31
2022-11-17T15:42:24.817Z,87.24
2022-11-17T15:45:29.390Z,87.21
2022-11-17T15:48:38.983Z,87.24
2022-11-17T15:51:45.284Z,87.30
2022-11-17T15:54:49.849Z,87.09
2022-11-17T15:57:57.610Z,87.27
2022-11-17T16:01:17.924Z,87.16
2022-11-17T16:04:24.224Z,87.11
2022-11-17T16:07:28.797Z,87.28
2022-11-17T16:10:35.210Z,87.30
2022-11-17T16:13:40.016Z,87.33
2022-11-17T16:16:48.019Z,87.45
2022-11-17T16:19:54.316Z,87.23
2022-11-17T16:22:59.898Z,87.49
2022-11-17T16:26:06.599Z,87.41
2022-11-17T16:29:13.801Z,87.49
2022-11-17T16:32:20.457Z,87.20
2022-11-17T16:35:26.798Z,87.60
2022-11-17T16:38:31.320Z,87.70
2022-11-17T16:41:39.364Z,87.45
2022-11-17T16:44:45.690Z,87.35
2022-11-17T16:47:50.298Z,87.42
2022-11-17T16:50:56.594Z,87.57
2022-11-17T16:54:02.172Z,87.59
2022-11-17T16:57:08.565Z,87.20
2022-11-17T17:00:17.904Z,87.48
2022-11-17T17:03:24.802Z,87.52
2022-11-17T17:06:31.618Z,87.48
2022-11-17T17:09:38.014Z,87.47
2022-11-17T17:12:42.596Z,87.21
2022-11-17T17:15:48.824Z,87.30
2022-11-17T17:19:00.345Z,87.46
2022-11-17T17:22:06.551Z,87.55
2022-11-17T17:25:14.347Z,87.28
2022-11-17T17:28:20.666Z,87.33
2022-11-17T17:31:26.160Z,87.38
2022-11-17T17:34:32.502Z,87.35
2022-11-17T17:37:37.052Z,87.44
2022-11-17T17:40:43.397Z,87.29
2022-11-17T17:43:48.609Z,87.27
2022-11-17T17:46:57.211Z,87.13
2022-11-17T17:50:03.479Z,87.21
2022-11-17T17:53:08.078Z,87.23
2022-11-17T17:56:15.660Z,87.35
2022-11-17T17:59:21.999Z,87.39
2022-11-17T18:02:26.543Z,87.45
2022-11-17T18:05:33.550Z,87.30
2022-11-17T18:08:40.497Z,87.34
2022-11-17T18:11:49.691Z,87.33
2022-11-17T18:14:56.533Z,87.52
2022-11-17T18:18:01.102Z,87.53
2022-11-17T18:21:09.352Z,87.41
2022-11-17T18:24:15.918Z,87.22
2022-11-17T18:27:22.250Z,87.12
2022-11-17T18:30:26.755Z,87.22
2022-11-17T18:33:33.128Z,87.36
2022-11-17T18:36:37.779Z,87.18
2022-11-17T18:39:44.045Z,87.20
2022-11-17T18:42:50.293Z,87.18
2022-11-17T18:45:54.859Z,87.39
2022-11-17T18:49:01.785Z,87.21
2022-11-17T18:52:09.932Z,87.39
2022-11-17T18:55:16.197Z,87.06
2022-11-17T18:58:22.811Z,87.18
2022-11-17T19:01:30.809Z,87.38
2022-11-17T19:04:37.127Z,87.16
2022-11-17T19:07:43.461Z,87.33
2022-11-17T19:10:54.575Z,87.41
2022-11-17T19:14:02.433Z,87.18
2022-11-17T19:17:09.016Z,87.28
2022-11-17T19:20:16.498Z,87.28
2022-11-17T19:23:23.011Z,87.22
2022-11-17T19:26:31.735Z,87.16
2022-11-17T19:29:40.313Z,87.15
2022-11-17T19:32:46.832Z,87.33
2022-11-17T19:35:53.097Z,87.38
2022-11-17T19:39:01.170Z,87.30
2022-11-17T19:42:07.828Z,87.37
2022-11-17T19:45:14.333Z,87.58
2022-11-17T19:48:20.628Z,87.68
2022-11-17T19:51:25.823Z,87.50
2022-11-17T19:54:32.173Z,87.50
2022-11-17T19:57:36.609Z,87.36
2022-11-17T20:00:43.462Z,87.33
2022-11-17T20:03:50.710Z,87.64
2022-11-17T20:06:57.136Z,87.45
2022-11-17T20:10:03.459Z,87.42
2022-11-17T20:13:09.747Z,87.25
2022-11-17T20:16:15.206Z,87.26
2022-11-17T20:19:21.449Z,87.23
2022-11-17T20:22:27.717Z,87.46
2022-11-17T20:25:32.273Z,87.53
2022-11-17T20:28:39.646Z,87.50
2022-11-17T20:31:46.032Z,87.29
2022-11-17T20:34:50.528Z,87.21
2022-11-17T20:37:56.943Z,87.43
2022-11-17T20:41:04.050Z,87.49
2022-11-17T20:44:24.226Z,87.63
2022-11-17T20:47:30.674Z,87.37
2022-11-17T20:50:35.132Z,87.09
2022-11-17T20:53:42.011Z,87.23
2022-11-17T20:56:48.315Z,87.33
2022-11-17T20:59:52.870Z,87.35
2022-11-17T21:03:00.184Z,87.40
2022-11-17T21:06:07.283Z,87.50
2022-11-17T21:09:13.845Z,87.23
2022-11-17T21:12:20.709Z,87.46
2022-11-17T21:15:27.129Z,87.37
2022-11-17T21:18:33.676Z,87.33
2022-11-17T21:21:40.027Z,87.41
2022-11-17T21:24:44.630Z,87.27
2022-11-17T21:27:50.913Z,87.38
2022-11-17T21:30:55.594Z,87.33
2022-11-17T21:34:03.270Z,87.35
2022-11-17T21:37:09.684Z,87.31
2022-11-17T21:40:19.093Z,87.28
2022-11-17T21:43:25.409Z,87.24
2022-11-17T21:46:31.189Z,87.24
2022-11-17T21:49:37.380Z,87.34
2022-11-17T21:52:43.760Z,87.48
2022-11-17T21:55:48.283Z,87.39
2022-11-17T21:58:57.440Z,87.44
2022-11-17T22:02:03.724Z,87.41
2022-11-17T22:05:09.087Z,87.50
2022-11-17T22:08:15.400Z,87.55
2022-11-17T22:11:35.583Z,87.58
2022-11-17T22:14:42.309Z,87.56
2022-11-17T22:17:46.776Z,87.58
2022-11-17T22:20:54.899Z,87.62
2022-11-17T22:24:01.229Z,87.41
2022-11-17T22:27:05.915Z,87.25
2022-11-17T22:30:14.616Z,87.28
2022-11-17T22:33:21.591Z,87.32
2022-11-17T22:36:27.840Z,87.41
2022-11-17T22:39:34.203Z,87.28
2022-11-17T22:42:40.550Z,87.58
2022-11-17T22:45:45.053Z,87.49
2022-11-17T22:48:51.511Z,87.36
2022-11-17T22:52:07.802Z,87.29
2022-11-17T22:55:14.025Z,87.20
2022-11-17T22:58:20.293Z,87.26
2022-11-17T23:01:24.993Z,87.46
2022-11-17T23:04:31.326Z,87.30
2022-11-17T23:07:36.012Z,87.40
2022-11-17T23:10:42.415Z,87.39
2022-11-17T23:13:46.936Z,87.26
2022-11-17T23:16:53.477Z,87.34
2022-11-17T23:19:59.850Z,87.41
2022-11-17T23:23:04.408Z,87.31
2022-11-17T23:26:12.813Z,87.37
2022-11-17T23:29:19.437Z,87.43
2022-11-17T23:32:25.968Z,87.52
2022-11-17T23:35:30.556Z,87.33
2022-11-17T23:38:37.038Z,87.35
2022-11-17T23:41:43.390Z,87.27
2022-11-17T23:44:47.900Z,87.35
2022-11-17T23:47:54.653Z,87.39
2022-11-17T23:51:04.939Z,87.27
2022-11-17T23:54:14.384Z,87.29
2022-11-17T23:57:20.604Z,87.34
